Strona główna
METAR-TAF:

METAR-TAF

Lotnisko :

Pago Pago, Dalekie Wyspy Mniejsze Stanów Zjednoczonych

Port lotniczy Pago Pago

Szerokość geograficzna: 14-20S, Długość geograficzna: 170-43W, wysokość: 3 m

Aktualna obserwacja pogody

Raport powstał 14 minut temu, godzina 18:53 UTC
Wiatr 5 kt z kierunków zmiennych
Temperatura 28°C
Wilgotność 79%
Ciśnienie 1010 hPa
Widzialność: 19.3 km
Mało chmury na wysokości 1900 ft
Rozproszone chmury na wysokości 12000 ft

METAR: NSTU 261853Z VRB05KT 12SM FEW019 SCT120 28/24 A2983 RMK SLP103 T02810242

czas: 08:07 (19:07 UTC)

Prognoza

Raport powstał 1 godzina i 16 minut temu, godzina 17:51 UTC
Prognoza ważna od 26 godzina 18 UTC do 27 godzina 18 UTC
Wiatr 6 kt od wschodnio-południowy wschód
Widzialność: 10 km
Rozproszone chmury na wysokości 2000 ft
Rozproszone chmury na wysokości 4000 ft
Przerywane chmury na wysokości 10000 ft
przelotny w pobliże

TAF: NSTU 261751Z 2618/2718 12006KT P6SM VCSH SCT020 SCT040 BKN100

Obserwacja i prognoza pogody dla ponad 4000 lotnisk (raport METAR i TAF).

Dostępne stacje oznaczono żółtymi i czerwonymi punktami na mapie.

Najedź kursorem aby zobaczyć nazwę stacji.

Kliknij aby zobaczyć obserwacje i prognozy pogody.

Aby zmienić mapę: kliknij na zielony przycisk z czarnym krzyżykiem, aby powiększyć; na zielony przycisk z myślnikiem, aby pomniejszyć; na zielone strzałki, aby przejść do map sąsiednich.


METAR-TAF: